CheckWX is a tool to help pilots better visualize weather data.  It is not intended as a substitute for an official pre-flight weather briefing.

17:35:47 UTC

KGTB TAF
Wheeler-Sack AAF Airport
Fort Drum, New York, USA
TAF KGTB 241700Z 2417/2523 24009KT 9999 SCT020 QNH2996INS TEMPO 2418/2421 25012G18KT BECMG 2420/2421 24010G15KT 9999 BKN020 620203 QNH2996INS BECMG 2422/2423 25006KT 9999 OVC020 620203 QNH2997INS BECMG 2500/2501 VRB06KT 4800 -SN OVC010 620107 QNH3001INS BECMG 2503/2505 35010G15KT 9999 NSW SCT015 QNH3009INS TX06/2420Z TNM06/2508Z

Mar-24@
17:00 UTC

Mar-24 @ 17:00 UTC

Mar-24@
20:00 UTC

Mar-24 @ 20:00 UTC

TAF KGTB 241700Z 2417/2523 24009KT 9999 SCT020 QNH2996INS
Wind
  • 240° at 9 KTS
Cloud Levels
  • Scattered at 2,000' AGL

Mar-24@
18:00 UTC

Mar-24 @ 18:00 UTC

Mar-24@
21:00 UTC

Mar-24 @ 21:00 UTC

TEMPO 2418/2421 25012G18KT

Temporary

Temporary Changes expected for less than half the time period

Wind
  • 250° at 12 KTS
  • {Gusting to 18 KTS

Mar-24@
20:00 UTC

Mar-24 @ 20:00 UTC

Mar-24@
22:00 UTC

Mar-24 @ 22:00 UTC

BECMG 2420/2421 24010G15KT 9999 BKN020 620203 QNH2996INS

Becoming

Becoming Conditions expected by Sun, Mar 24, 2019 @ 21:00 UTC

Wind
  • 240° at 10 KTS
  • {Gusting to 15 KTS
Cloud Levels
  • Broken at 2,000' AGL
Icing
Light icing in cloud expected at 2,000' AGL extending to 5,000' AGL

Mar-24@
22:00 UTC

Mar-24 @ 22:00 UTC

Mar-25@
00:00 UTC

Mar-25 @ 00:00 UTC

BECMG 2422/2423 25006KT 9999 OVC020 620203 QNH2997INS

Becoming

Becoming Conditions expected by Sun, Mar 24, 2019 @ 23:00 UTC

Wind
  • 250° at 6 KTS
Cloud Levels
  • Overcast at 2,000' AGL
Icing
Light icing in cloud expected at 2,000' AGL extending to 5,000' AGL

Mar-25@
00:00 UTC

Mar-25 @ 00:00 UTC

Mar-25@
03:00 UTC

Mar-25 @ 03:00 UTC

BECMG 2500/2501 VRB06KT 4800 -SN OVC010 620107 QNH3001INS

Becoming

Becoming Conditions expected by Mon, Mar 25, 2019 @ 01:00 UTC

Wind
  • Variable at 6 KTS
Conditions
Light Snow
Cloud Levels
  • Overcast at 1,000' AGL
Icing
Light icing in cloud expected at 1,000' AGL extending to 8,000' AGL

Mar-25@
03:00 UTC

Mar-25 @ 03:00 UTC

Mar-25@
23:00 UTC

Mar-25 @ 23:00 UTC

BECMG 2503/2505 35010G15KT 9999 NSW SCT015 QNH3009INS TX06/2420Z TNM06/2508Z

Becoming

Becoming Conditions expected by Mon, Mar 25, 2019 @ 05:00 UTC

Wind
  • 350° at 10 KTS
  • {Gusting to 15 KTS
Conditions
No significant weather
Cloud Levels
  • Scattered at 1,500' AGL